Time;durP1;ratioP1;P1;durP2;ratioP2;P2;SDS_P1;SDS_P2;PMS_P1;PMS_P2;Temp;Humidity;BMP_temperature;BMP_pressure;BME280_temperature;BME280_humidity;BME280_pressure;Samples;Min_cycle;Max_cycle;Signal;HPM_P1;HPM_P2
2023/09/29 00:00:14;;;;;;;6.90;5.03;;;;;;;;;;6194799;23;20016;-82
2023/09/29 00:02:42;;;;;;;5.72;4.80;;;;;;;;;;6194615;23;20021;-82
2023/09/29 00:05:14;;;;;;;6.28;5.10;;;;;;;;;;6206399;23;20468;-82
2023/09/29 00:07:43;;;;;;;5.40;4.32;;;;;;;;;;6169249;23;20025;-82
2023/09/29 00:10:15;;;;;;;9.25;6.03;;;;;;;;;;6204961;23;20019;-82
2023/09/29 00:12:42;;;;;;;9.13;6.55;;;;;;;;;;6194939;23;20022;-82
2023/09/29 00:15:12;;;;;;;6.00;5.43;;;;;;;;;;6195811;23;20024;-82
2023/09/29 00:17:39;;;;;;;5.75;5.13;;;;;;;;;;6170993;23;20027;-82
2023/09/29 00:20:17;;;;;;;6.30;5.68;;;;;;;;;;6223803;23;20019;-82
2023/09/29 00:22:45;;;;;;;5.88;5.13;;;;;;;;;;6196616;23;20020;-82
2023/09/29 00:25:15;;;;;;;9.02;5.38;;;;;;;;;;6197060;23;20016;-82
2023/09/29 00:27:42;;;;;;;7.53;5.85;;;;;;;;;;6195940;23;20024;-82
2023/09/29 00:30:12;;;;;;;10.43;4.95;;;;;;;;;;6195081;23;20021;-82
2023/09/29 00:32:44;;;;;;;5.07;4.45;;;;;;;;;;6170422;23;20027;-82
2023/09/29 00:35:24;;;;;;;6.95;5.38;;;;;;;;;;6171612;23;20016;-82
2023/09/29 00:37:53;;;;;;;6.00;5.28;;;;;;;;;;6170925;23;20024;-82
2023/09/29 00:40:20;;;;;;;9.43;5.03;;;;;;;;;;6168886;23;20019;-82
2023/09/29 00:42:48;;;;;;;5.85;4.85;;;;;;;;;;6172284;23;20035;-82
2023/09/29 00:45:19;;;;;;;5.22;4.75;;;;;;;;;;6172663;23;20016;-82
2023/09/29 00:47:50;;;;;;;9.88;5.35;;;;;;;;;;6208427;23;20028;-82
2023/09/29 00:50:19;;;;;;;5.32;4.40;;;;;;;;;;6197126;23;20019;-82
2023/09/29 00:52:47;;;;;;;7.53;5.03;;;;;;;;;;6171864;23;20016;-82
2023/09/29 00:55:17;;;;;;;6.75;5.20;;;;;;;;;;6172765;23;20027;-82
2023/09/29 00:57:48;;;;;;;6.45;5.50;;;;;;;;;;6172277;23;20034;-82
2023/09/29 01:00:21;;;;;;;5.75;5.15;;;;;;;;;;6171033;23;20021;-82
2023/09/29 01:02:48;;;;;;;5.68;4.75;;;;;;;;;;6196642;23;20016;-82
2023/09/29 01:05:16;;;;;;;8.52;5.78;;;;;;;;;;6172790;23;20356;-82
2023/09/29 01:07:46;;;;;;;7.75;6.95;;;;;;;;;;6173308;23;20027;-82
2023/09/29 01:10:14;;;;;;;6.72;5.78;;;;;;;;;;6171424;23;20641;-82
2023/09/29 01:12:43;;;;;;;5.82;5.20;;;;;;;;;;6171130;23;20032;-82
2023/09/29 01:15:13;;;;;;;6.72;6.13;;;;;;;;;;6233585;23;20017;-81
2023/09/29 01:17:41;;;;;;;5.32;4.35;;;;;;;;;;6171927;23;20021;-82
2023/09/29 01:20:16;;;;;;;5.57;4.00;;;;;;;;;;6196456;23;20021;-82
2023/09/29 01:22:47;;;;;;;5.27;4.77;;;;;;;;;;6170939;23;20013;-82
2023/09/29 01:25:17;;;;;;;8.15;4.75;;;;;;;;;;6171918;23;20572;-82
2023/09/29 01:27:46;;;;;;;5.70;5.20;;;;;;;;;;6207881;23;20017;-83
2023/09/29 01:30:18;;;;;;;6.45;4.97;;;;;;;;;;6170577;23;20021;-82
2023/09/29 01:32:47;;;;;;;4.80;4.18;;;;;;;;;;6196253;23;20023;-82
2023/09/29 01:35:17;;;;;;;4.63;4.13;;;;;;;;;;6208508;23;20360;-82
2023/09/29 01:37:46;;;;;;;6.32;5.55;;;;;;;;;;6215109;22;20023;-81
2023/09/29 01:40:20;;;;;;;7.43;5.90;;;;;;;;;;6200901;23;20019;-81
2023/09/29 01:42:51;;;;;;;5.60;4.50;;;;;;;;;;6235811;23;20020;-81
2023/09/29 01:45:23;;;;;;;16.92;4.93;;;;;;;;;;6202455;22;20348;-81
2023/09/29 01:47:52;;;;;;;6.30;5.15;;;;;;;;;;6201759;23;20480;-81
2023/09/29 01:50:21;;;;;;;5.63;4.70;;;;;;;;;;6201130;23;20026;-81
2023/09/29 01:52:53;;;;;;;5.53;5.03;;;;;;;;;;6225210;23;20015;-81
2023/09/29 01:55:24;;;;;;;6.68;5.68;;;;;;;;;;6226077;22;20027;-81
2023/09/29 01:57:54;;;;;;;8.63;4.78;;;;;;;;;;6225307;23;20020;-81
2023/09/29 02:00:25;;;;;;;5.80;5.28;;;;;;;;;;6233216;23;20033;-81
2023/09/29 02:02:55;;;;;;;5.60;5.05;;;;;;;;;;6220909;23;20047;-81
2023/09/29 02:05:23;;;;;;;5.78;4.50;;;;;;;;;;6197321;22;20026;-81
2023/09/29 02:07:53;;;;;;;11.07;5.60;;;;;;;;;;6223575;23;20023;-81
2023/09/29 02:10:27;;;;;;;5.03;4.55;;;;;;;;;;6174414;23;20016;-81
2023/09/29 02:12:56;;;;;;;5.93;4.47;;;;;;;;;;6196402;23;20023;-81
2023/09/29 02:15:25;;;;;;;6.28;5.13;;;;;;;;;;6222248;22;20015;-81
2023/09/29 02:17:57;;;;;;;4.07;3.67;;;;;;;;;;6198746;23;20024;-81
2023/09/29 02:20:29;;;;;;;6.82;5.30;;;;;;;;;;6223490;23;20027;-81
2023/09/29 02:22:57;;;;;;;4.95;4.55;;;;;;;;;;6196713;23;20020;-81
2023/09/29 02:25:29;;;;;;;5.60;5.05;;;;;;;;;;6246880;22;20031;-81
2023/09/29 02:28:01;;;;;;;5.72;5.13;;;;;;;;;;6232635;23;20023;-81
2023/09/29 02:30:30;;;;;;;8.18;5.78;;;;;;;;;;6222029;23;20012;-81
2023/09/29 02:32:58;;;;;;;5.95;5.05;;;;;;;;;;6221741;23;20012;-81
2023/09/29 02:35:28;;;;;;;4.30;3.90;;;;;;;;;;6195342;22;20456;-81
2023/09/29 02:37:57;;;;;;;6.05;5.28;;;;;;;;;;6222229;23;20024;-81
2023/09/29 02:40:29;;;;;;;5.35;4.88;;;;;;;;;;6172889;23;20018;-81
2023/09/29 02:42:57;;;;;;;6.38;4.97;;;;;;;;;;6223529;23;20024;-81
2023/09/29 02:45:25;;;;;;;5.40;4.38;;;;;;;;;;6195559;22;20035;-81
2023/09/29 02:47:53;;;;;;;5.90;4.75;;;;;;;;;;6197447;23;20048;-81
2023/09/29 02:50:20;;;;;;;5.10;4.63;;;;;;;;;;6196904;23;20039;-81
2023/09/29 02:52:48;;;;;;;4.72;4.32;;;;;;;;;;6197241;23;20492;-81
2023/09/29 02:55:19;;;;;;;5.00;4.47;;;;;;;;;;6231191;22;20042;-82
2023/09/29 02:57:48;;;;;;;7.60;4.82;;;;;;;;;;6221689;23;20020;-81
2023/09/29 03:00:18;;;;;;;7.13;5.15;;;;;;;;;;6232362;23;20016;-82
2023/09/29 03:02:48;;;;;;;5.72;4.30;;;;;;;;;;6248127;23;20018;-81
2023/09/29 03:05:20;;;;;;;5.55;5.03;;;;;;;;;;6221565;22;20023;-82
2023/09/29 03:07:49;;;;;;;7.75;4.47;;;;;;;;;;6222180;23;20027;-82
2023/09/29 03:10:20;;;;;;;4.55;4.13;;;;;;;;;;6221832;23;20020;-82
2023/09/29 03:12:51;;;;;;;5.30;4.55;;;;;;;;;;6197199;23;20020;-82
2023/09/29 03:15:18;;;;;;;5.10;4.63;;;;;;;;;;6222014;22;20016;-81
2023/09/29 03:17:48;;;;;;;11.18;4.78;;;;;;;;;;6220322;23;20027;-81
2023/09/29 03:20:19;;;;;;;5.05;4.55;;;;;;;;;;6173069;23;20035;-82
2023/09/29 03:22:48;;;;;;;5.75;4.97;;;;;;;;;;6197189;23;20024;-82
2023/09/29 03:25:18;;;;;;;5.63;5.10;;;;;;;;;;6222175;23;20024;-82
2023/09/29 03:27:48;;;;;;;6.50;4.63;;;;;;;;;;6257203;23;20468;-82
2023/09/29 03:30:17;;;;;;;6.53;5.10;;;;;;;;;;6196394;23;20018;-82
2023/09/29 03:32:44;;;;;;;5.07;4.57;;;;;;;;;;6249376;23;20012;-82
2023/09/29 03:35:14;;;;;;;5.22;4.40;;;;;;;;;;6222731;23;20027;-82
2023/09/29 03:37:42;;;;;;;6.40;5.07;;;;;;;;;;6195177;23;20020;-82
2023/09/29 03:40:14;;;;;;;8.23;5.18;;;;;;;;;;6231124;23;20016;-82
2023/09/29 03:42:43;;;;;;;6.85;3.78;;;;;;;;;;6222148;23;20024;-82
2023/09/29 03:45:12;;;;;;;7.88;5.20;;;;;;;;;;6222307;23;20020;-82
2023/09/29 03:47:41;;;;;;;5.55;4.97;;;;;;;;;;6221268;23;20035;-81
2023/09/29 03:50:11;;;;;;;7.63;5.72;;;;;;;;;;6221854;23;20031;-81
2023/09/29 03:52:39;;;;;;;9.38;5.20;;;;;;;;;;6222894;23;20022;-82
2023/09/29 03:55:09;;;;;;;5.43;4.90;;;;;;;;;;6250903;23;20012;-81
2023/09/29 03:57:37;;;;;;;7.35;5.00;;;;;;;;;;6250630;22;20016;-82
2023/09/29 04:00:11;;;;;;;6.47;5.88;;;;;;;;;;6249004;23;20080;-81
2023/09/29 04:02:41;;;;;;;15.27;5.93;;;;;;;;;;6224187;23;20016;-82
2023/09/29 04:05:09;;;;;;;6.25;5.35;;;;;;;;;;6251654;23;20023;-82
2023/09/29 04:07:39;;;;;;;5.22;4.72;;;;;;;;;;6224555;23;20023;-81
2023/09/29 04:10:10;;;;;;;5.47;4.97;;;;;;;;;;6223227;23;20016;-81
2023/09/29 04:12:38;;;;;;;7.55;4.07;;;;;;;;;;6260270;23;20018;-81
2023/09/29 04:15:09;;;;;;;5.22;4.72;;;;;;;;;;6224379;23;20023;-81
2023/09/29 04:17:36;;;;;;;6.20;5.68;;;;;;;;;;6223468;23;20018;-81
2023/09/29 04:20:06;;;;;;;5.90;5.05;;;;;;;;;;6222572;23;20020;-81
2023/09/29 04:22:34;;;;;;;9.98;4.60;;;;;;;;;;6198624;23;20017;-81
2023/09/29 04:25:02;;;;;;;6.20;4.15;;;;;;;;;;6261418;23;20022;-81
2023/09/29 04:27:31;;;;;;;5.78;4.57;;;;;;;;;;6223165;23;20019;-82
2023/09/29 04:29:59;;;;;;;6.03;5.45;;;;;;;;;;6221711;23;20023;-82
2023/09/29 04:32:31;;;;;;;5.35;4.85;;;;;;;;;;6223669;23;20031;-82
2023/09/29 04:35:01;;;;;;;6.88;4.65;;;;;;;;;;6223014;23;20016;-82
2023/09/29 04:37:30;;;;;;;5.93;4.88;;;;;;;;;;6223300;23;20027;-82
2023/09/29 04:39:58;;;;;;;5.75;4.97;;;;;;;;;;6223072;23;20028;-82
2023/09/29 04:42:30;;;;;;;5.77;5.10;;;;;;;;;;6225913;23;20064;-82
2023/09/29 04:44:59;;;;;;;6.07;5.47;;;;;;;;;;6226843;23;20016;-82
2023/09/29 04:47:27;;;;;;;7.05;5.55;;;;;;;;;;6201389;23;20027;-82
2023/09/29 04:49:54;;;;;;;6.75;5.80;;;;;;;;;;6200980;23;20024;-82
2023/09/29 04:52:24;;;;;;;6.80;4.88;;;;;;;;;;6226008;23;20019;-82
2023/09/29 04:54:55;;;;;;;6.60;5.15;;;;;;;;;;6225974;23;20022;-82
2023/09/29 04:57:27;;;;;;;7.70;5.18;;;;;;;;;;6225168;23;20030;-82
2023/09/29 04:59:55;;;;;;;5.40;4.90;;;;;;;;;;6222496;23;20024;-82
2023/09/29 05:02:29;;;;;;;6.13;5.25;;;;;;;;;;6197060;23;20470;-82
2023/09/29 05:04:56;;;;;;;6.05;5.07;;;;;;;;;;6223446;23;20348;-82
2023/09/29 05:07:23;;;;;;;6.03;5.10;;;;;;;;;;6223122;23;20047;-82
2023/09/29 05:09:50;;;;;;;6.18;5.50;;;;;;;;;;6222743;23;20016;-80
2023/09/29 05:12:19;;;;;;;6.78;5.35;;;;;;;;;;6221749;23;20023;-81
2023/09/29 05:14:47;;;;;;;5.70;5.10;;;;;;;;;;6247526;23;20023;-81
2023/09/29 05:17:14;;;;;;;10.48;6.18;;;;;;;;;;6224690;23;20463;-82
2023/09/29 05:19:43;;;;;;;6.07;5.43;;;;;;;;;;6223239;23;20519;-82
2023/09/29 05:22:11;;;;;;;6.50;5.15;;;;;;;;;;6195825;23;20024;-81
2023/09/29 05:24:40;;;;;;;6.38;5.13;;;;;;;;;;6246865;23;20027;-81
2023/09/29 05:27:07;;;;;;;14.88;5.43;;;;;;;;;;6247981;22;20483;-81
2023/09/29 05:29:37;;;;;;;7.32;4.47;;;;;;;;;;6221796;23;20012;-82
2023/09/29 05:32:06;;;;;;;5.80;5.13;;;;;;;;;;6221051;23;20020;-82
2023/09/29 05:34:33;;;;;;;5.47;5.07;;;;;;;;;;6170134;23;20016;-82
2023/09/29 05:37:01;;;;;;;4.90;4.35;;;;;;;;;;6225253;23;20016;-82
2023/09/29 05:39:29;;;;;;;10.68;6.45;;;;;;;;;;6197095;23;20016;-81
2023/09/29 05:41:56;;;;;;;6.13;5.22;;;;;;;;;;6250494;23;20008;-82
2023/09/29 05:44:26;;;;;;;6.88;6.28;;;;;;;;;;6195650;23;20020;-82
2023/09/29 05:46:55;;;;;;;6.88;4.93;;;;;;;;;;6195723;23;20016;-81
2023/09/29 05:49:22;;;;;;;5.40;4.03;;;;;;;;;;6220808;23;20020;-81
2023/09/29 05:51:55;;;;;;;5.75;5.13;;;;;;;;;;6221407;23;20471;-81
2023/09/29 05:54:27;;;;;;;6.35;4.80;;;;;;;;;;6221340;23;20024;-81
2023/09/29 05:56:59;;;;;;;7.30;6.03;;;;;;;;;;6251104;22;20016;-81
2023/09/29 05:59:26;;;;;;;6.78;5.68;;;;;;;;;;6222352;23;20012;-81
2023/09/29 06:01:55;;;;;;;17.20;5.18;;;;;;;;;;6195890;23;20027;-81
2023/09/29 06:04:22;;;;;;;5.75;5.07;;;;;;;;;;6220750;23;20024;-81
2023/09/29 06:07:17;;;;;;;5.53;5.03;;;;;;;;;;6215779;23;20016;-81
2023/09/29 06:09:44;;;;;;;6.30;4.90;;;;;;;;;;6196588;23;20016;-81
2023/09/29 06:12:11;;;;;;;8.82;6.53;;;;;;;;;;6194083;23;20012;-81
2023/09/29 06:14:38;;;;;;;6.13;5.22;;;;;;;;;;6194697;23;20024;-81
2023/09/29 06:17:09;;;;;;;6.35;5.35;;;;;;;;;;6246825;22;20020;-81
2023/09/29 06:19:42;;;;;;;6.25;5.38;;;;;;;;;;6258304;23;20015;-81
2023/09/29 06:22:11;;;;;;;5.60;5.10;;;;;;;;;;6221829;23;20017;-81
2023/09/29 06:24:42;;;;;;;6.90;6.25;;;;;;;;;;6196567;23;20016;-81
2023/09/29 06:27:14;;;;;;;17.03;6.10;;;;;;;;;;6220576;23;20028;-81
2023/09/29 06:29:46;;;;;;;7.75;5.57;;;;;;;;;;6248139;23;20251;-81
2023/09/29 06:32:15;;;;;;;7.40;6.63;;;;;;;;;;6195934;23;20024;-81
2023/09/29 06:34:42;;;;;;;6.10;5.47;;;;;;;;;;6246703;23;20012;-82
2023/09/29 06:44:38;;;;;;;;;;;;;;;;;;;;;
2023/09/29 06:51:29;;;;;;;;;;;;;;;;;;;;;
2023/09/29 06:54:41;;;;;;;9.32;5.90;;;;;;;;;;6180319;23;20022;-81
2023/09/29 06:57:39;;;;;;;;;;;;;;;;;;;;;
2023/09/29 07:00:37;;;;;;;7.13;5.70;;;;;;;;;;6174141;23;20020;-80
2023/09/29 07:06:58;;;;;;;5.45;4.93;;;;;;;;;;6219959;23;20016;-81
2023/09/29 07:09:53;;;;;;;6.10;5.43;;;;;;;;;;6190542;23;20027;-81
2023/09/29 07:12:49;;;;;;;6.55;5.57;;;;;;;;;;6217603;23;20020;-81
2023/09/29 07:15:45;;;;;;;5.70;5.15;;;;;;;;;;6225513;23;20016;-81
2023/09/29 07:18:59;;;;;;;;;;;;;;;;;;;;;
2023/09/29 07:22:02;;;;;;;13.25;5.72;;;;;;;;;;6192343;23;20028;-82
2023/09/29 07:25:18;;;;;;;;;;;;;;;;;;;;;
2023/09/29 07:28:14;;;;;;;;;;;;;;;;;;;;;
2023/09/29 07:31:13;;;;;;;10.20;5.40;;;;;;;;;;6182550;23;20028;-81
2023/09/29 07:42:28;;;;;;;;;;;;;;;;;;;;;
2023/09/29 07:46:31;;;;;;;;;;;;;;;;;;;;;
2023/09/29 07:54:09;;;;;;;4.72;4.22;;;;;;;;;;5972724;23;20031;-82
2023/09/29 07:57:13;;;;;;;5.97;4.20;;;;;;;;;;6077250;23;20022;-82
2023/09/29 08:00:15;;;;;;;;;;;;;;;;;;;;;
2023/09/29 08:03:54;;;;;;;;;;;;;;;;;;;;;
2023/09/29 08:06:56;;;;;;;4.85;4.43;;;;;;;;;;6072709;23;20499;-82
2023/09/29 08:09:40;;;;;;;6.88;4.80;;;;;;;;;;6130810;23;20021;-83
2023/09/29 08:13:04;;;;;;;;;;;;;;;;;;;;;
2023/09/29 08:15:38;;;;;;;5.22;4.80;;;;;;;;;;6067895;23;20034;-83
2023/09/29 08:18:36;;;;;;;;;;;;;;;;;;;;;
2023/09/29 08:21:41;;;;;;;4.85;3.90;;;;;;;;;;6189281;23;20020;-82
2023/09/29 08:24:14;;;;;;;6.68;3.83;;;;;;;;;;6226067;23;20012;-82
2023/09/29 08:27:36;;;;;;;;;;;;;;;;;;;;;
2023/09/29 08:30:27;;;;;;;7.68;5.00;;;;;;;;;;6066955;23;20033;-83
2023/09/29 08:33:23;;;;;;;;;;;;;;;;;;;;;
2023/09/29 08:36:09;;;;;;;5.78;4.18;;;;;;;;;;6201957;23;20449;-83
2023/09/29 08:38:48;;;;;;;5.70;4.93;;;;;;;;;;6225798;23;20035;-83
2023/09/29 08:41:30;;;;;;;;;;;;;;;;;;;;;
2023/09/29 09:30:37;;;;;;;;;;;;;;;;;;;;;
2023/09/29 09:58:27;;;;;;;;;;;;;;;;;;;;;
2023/09/29 10:01:32;;;;;;;;;;;;;;;;;;;;;
2023/09/29 10:05:00;;;;;;;;;;;;;;;;;;;;;
2023/09/29 10:08:14;;;;;;;4.28;3.22;;;;;;;;;;6010874;23;20029;-83
2023/09/29 10:15:05;;;;;;;4.00;3.60;;;;;;;;;;6028552;23;20047;-84
2023/09/29 10:17:39;;;;;;;6.35;3.88;;;;;;;;;;6214240;23;20017;-84
2023/09/29 10:20:19;;;;;;;4.07;3.67;;;;;;;;;;6223178;23;20318;-83
2023/09/29 10:22:53;;;;;;;3.25;2.95;;;;;;;;;;6162548;23;20017;-84
2023/09/29 10:25:24;;;;;;;6.57;4.45;;;;;;;;;;6186954;23;20013;-84
2023/09/29 10:28:00;;;;;;;7.88;4.07;;;;;;;;;;6223749;23;20016;-84
2023/09/29 10:30:31;;;;;;;4.22;3.20;;;;;;;;;;6161833;23;20039;-83
2023/09/29 10:33:07;;;;;;;4.50;2.83;;;;;;;;;;6213499;23;20028;-83
2023/09/29 10:35:35;;;;;;;4.63;2.97;;;;;;;;;;6162125;23;20012;-83
2023/09/29 10:38:11;;;;;;;4.47;3.55;;;;;;;;;;6185999;23;20479;-84
2023/09/29 10:40:41;;;;;;;6.03;3.90;;;;;;;;;;6161794;23;20028;-84
2023/09/29 10:43:10;;;;;;;4.00;3.35;;;;;;;;;;6187553;23;20020;-83
2023/09/29 10:45:40;;;;;;;5.53;3.65;;;;;;;;;;6162451;23;20361;-83
2023/09/29 10:48:08;;;;;;;8.52;3.78;;;;;;;;;;6193260;23;20013;-84
2023/09/29 10:50:42;;;;;;;5.38;3.40;;;;;;;;;;6158583;23;20473;-83
2023/09/29 10:53:12;;;;;;;6.47;4.28;;;;;;;;;;6184246;23;20031;-83
2023/09/29 10:55:44;;;;;;;4.90;3.38;;;;;;;;;;6161948;23;20023;-83
2023/09/29 10:58:15;;;;;;;4.20;3.15;;;;;;;;;;6187381;23;20025;-84
2023/09/29 11:00:47;;;;;;;4.05;3.20;;;;;;;;;;6192852;23;20020;-83
2023/09/29 11:03:19;;;;;;;3.50;3.05;;;;;;;;;;6194548;23;20024;-83
2023/09/29 11:05:49;;;;;;;3.38;2.97;;;;;;;;;;6158142;23;20024;-84
2023/09/29 11:08:29;;;;;;;4.18;3.28;;;;;;;;;;6192303;23;20017;-84
2023/09/29 11:10:57;;;;;;;4.80;4.03;;;;;;;;;;6193287;23;20017;-83
2023/09/29 11:13:27;;;;;;;8.85;3.03;;;;;;;;;;6157008;23;20465;-83
2023/09/29 11:15:58;;;;;;;4.15;3.30;;;;;;;;;;6157004;23;20037;-84
2023/09/29 11:18:27;;;;;;;5.53;3.00;;;;;;;;;;6156907;23;20021;-84
2023/09/29 11:20:59;;;;;;;4.10;3.55;;;;;;;;;;6183040;23;20021;-84
2023/09/29 11:23:39;;;;;;;3.60;3.30;;;;;;;;;;6181719;23;20032;-84
2023/09/29 11:26:09;;;;;;;4.47;2.47;;;;;;;;;;6189728;23;20349;-84
2023/09/29 11:28:40;;;;;;;3.15;2.65;;;;;;;;;;6181735;23;20024;-84
2023/09/29 11:31:12;;;;;;;5.45;2.95;;;;;;;;;;6192487;23;20017;-83
2023/09/29 11:33:41;;;;;;;4.68;3.45;;;;;;;;;;6191636;23;20024;-84
2023/09/29 11:36:15;;;;;;;5.70;2.67;;;;;;;;;;6182752;23;20020;-84
2023/09/29 11:38:42;;;;;;;4.35;3.50;;;;;;;;;;6181306;23;20017;-83
2023/09/29 11:41:12;;;;;;;3.78;3.38;;;;;;;;;;6181104;23;20032;-83
2023/09/29 11:43:43;;;;;;;4.53;3.70;;;;;;;;;;6157539;23;20024;-83
2023/09/29 11:46:14;;;;;;;4.05;3.40;;;;;;;;;;6172493;23;20352;-84
2023/09/29 11:48:42;;;;;;;4.47;3.65;;;;;;;;;;6156899;23;20024;-84
2023/09/29 11:51:13;;;;;;;5.95;3.60;;;;;;;;;;6181273;23;20020;-83
2023/09/29 11:53:40;;;;;;;5.53;3.30;;;;;;;;;;6156887;23;20358;-84
2023/09/29 11:56:08;;;;;;;5.38;3.40;;;;;;;;;;6181408;23;20032;-83
2023/09/29 11:58:38;;;;;;;5.95;3.60;;;;;;;;;;6157138;23;20024;-83
2023/09/29 12:01:06;;;;;;;10.30;4.28;;;;;;;;;;6181812;23;20021;-83
2023/09/29 12:03:35;;;;;;;6.43;3.72;;;;;;;;;;6157378;23;20235;-83
2023/09/29 12:06:05;;;;;;;3.22;2.85;;;;;;;;;;6181598;23;20013;-83
2023/09/29 12:08:35;;;;;;;4.82;3.35;;;;;;;;;;6133854;23;20036;-84
2023/09/29 12:11:07;;;;;;;6.05;4.15;;;;;;;;;;6157737;23;20021;-83
2023/09/29 12:13:36;;;;;;;5.15;3.28;;;;;;;;;;6158269;23;20021;-83
2023/09/29 12:16:04;;;;;;;5.40;3.13;;;;;;;;;;6182880;23;20023;-84
2023/09/29 12:18:35;;;;;;;7.22;3.30;;;;;;;;;;6158806;23;20020;-84
2023/09/29 12:21:07;;;;;;;9.73;3.53;;;;;;;;;;6192922;23;20028;-83
2023/09/29 12:23:35;;;;;;;8.38;3.65;;;;;;;;;;6183607;23;20020;-84
2023/09/29 12:26:02;;;;;;;3.65;3.15;;;;;;;;;;6158043;23;20473;-84
2023/09/29 12:28:32;;;;;;;6.15;3.33;;;;;;;;;;6184172;23;20484;-83
2023/09/29 12:30:59;;;;;;;5.43;3.22;;;;;;;;;;6186112;23;20013;-83
2023/09/29 12:33:29;;;;;;;3.50;2.70;;;;;;;;;;6158640;23;20020;-83
2023/09/29 12:35:58;;;;;;;3.17;2.70;;;;;;;;;;6183294;23;20009;-84
2023/09/29 12:38:29;;;;;;;5.35;3.08;;;;;;;;;;6182852;23;20099;-83
2023/09/29 12:40:58;;;;;;;3.72;2.60;;;;;;;;;;6183483;23;20020;-84
2023/09/29 12:43:28;;;;;;;4.93;3.85;;;;;;;;;;6158205;23;20028;-83
2023/09/29 12:45:55;;;;;;;18.45;3.65;;;;;;;;;;6162376;23;20017;-84
2023/09/29 12:48:25;;;;;;;9.98;2.85;;;;;;;;;;6163789;23;20024;-84
2023/09/29 12:50:54;;;;;;;3.65;3.08;;;;;;;;;;6163814;23;20028;-83
2023/09/29 12:53:23;;;;;;;4.70;3.28;;;;;;;;;;6188523;23;20016;-84
2023/09/29 12:55:52;;;;;;;5.25;3.08;;;;;;;;;;6164821;23;20442;-84
2023/09/29 12:58:22;;;;;;;3.40;2.83;;;;;;;;;;6214739;23;20012;-84
2023/09/29 13:00:50;;;;;;;3.47;2.60;;;;;;;;;;6162350;23;20024;-84
2023/09/29 13:03:20;;;;;;;3.47;3.00;;;;;;;;;;6163145;23;20017;-84
2023/09/29 13:05:50;;;;;;;7.20;2.67;;;;;;;;;;6214364;23;20035;-84
2023/09/29 13:08:17;;;;;;;4.28;2.47;;;;;;;;;;6197946;23;20341;-84
2023/09/29 13:10:48;;;;;;;5.28;3.08;;;;;;;;;;6214340;23;20345;-84
2023/09/29 13:13:15;;;;;;;5.95;2.63;;;;;;;;;;6187860;23;20025;-84
2023/09/29 13:15:43;;;;;;;4.20;2.72;;;;;;;;;;6163191;23;20469;-84
2023/09/29 13:18:12;;;;;;;5.35;2.55;;;;;;;;;;6187853;23;20063;-84
2023/09/29 13:20:44;;;;;;;3.08;2.55;;;;;;;;;;6162647;23;20027;-84
2023/09/29 13:23:14;;;;;;;5.93;2.67;;;;;;;;;;6224347;23;20017;-84
2023/09/29 13:25:43;;;;;;;3.75;3.38;;;;;;;;;;6187517;23;20043;-84
2023/09/29 13:28:12;;;;;;;3.10;2.60;;;;;;;;;;6162865;23;20017;-84
2023/09/29 13:30:39;;;;;;;6.93;2.85;;;;;;;;;;6197493;23;20441;-84
2023/09/29 13:33:09;;;;;;;4.22;2.50;;;;;;;;;;6163395;23;20016;-84
2023/09/29 13:35:39;;;;;;;4.03;2.35;;;;;;;;;;6214057;23;20012;-84
2023/09/29 13:40:52;;;;;;;3.72;2.15;;;;;;;;;;6213500;23;20016;-85
2023/09/29 13:43:21;;;;;;;3.00;2.35;;;;;;;;;;6161983;23;20020;-85
2023/09/29 13:45:48;;;;;;;5.53;2.45;;;;;;;;;;6155444;23;20021;-85
2023/09/29 13:48:21;;;;;;;2.28;2.08;;;;;;;;;;6133693;23;20351;-85
2023/09/29 13:50:52;;;;;;;5.57;2.50;;;;;;;;;;6157197;23;20461;-85
2023/09/29 13:53:21;;;;;;;7.05;2.50;;;;;;;;;;6156746;23;20480;-85
2023/09/29 13:55:51;;;;;;;3.30;2.65;;;;;;;;;;6157938;23;20065;-85
2023/09/29 13:58:22;;;;;;;4.18;3.63;;;;;;;;;;6134608;23;20021;-85
2023/09/29 14:00:50;;;;;;;3.92;2.30;;;;;;;;;;6161772;23;20020;-85
2023/09/29 14:03:17;;;;;;;4.07;2.33;;;;;;;;;;6132741;23;20457;-85
2023/09/29 14:05:44;;;;;;;3.08;2.40;;;;;;;;;;6132569;23;20024;-85
2023/09/29 14:08:12;;;;;;;7.07;3.10;;;;;;;;;;6157220;23;20021;-85
2023/09/29 14:10:41;;;;;;;2.92;2.50;;;;;;;;;;6183337;23;20021;-85
2023/09/29 14:13:11;;;;;;;6.75;2.92;;;;;;;;;;6133001;23;20017;-85
2023/09/29 14:15:40;;;;;;;3.72;2.83;;;;;;;;;;6131469;23;20024;-85
2023/09/29 14:18:09;;;;;;;10.15;2.53;;;;;;;;;;6109997;23;20027;-85
2023/09/29 14:20:39;;;;;;;6.68;3.13;;;;;;;;;;6184304;23;20013;-85
2023/09/29 14:23:07;;;;;;;4.95;3.63;;;;;;;;;;6135257;23;20334;-85
2023/09/29 14:25:39;;;;;;;3.85;2.90;;;;;;;;;;6159564;23;20024;-85
2023/09/29 14:28:07;;;;;;;12.07;3.92;;;;;;;;;;6169063;23;20020;-85
2023/09/29 14:30:36;;;;;;;12.85;5.70;;;;;;;;;;6134257;23;20020;-85
2023/09/29 14:33:05;;;;;;;8.20;5.05;;;;;;;;;;6160935;23;20031;-85
2023/09/29 14:35:35;;;;;;;11.10;4.97;;;;;;;;;;6156614;23;20017;-85
2023/09/29 14:38:05;;;;;;;8.75;5.78;;;;;;;;;;6157035;23;20024;-85
2023/09/29 14:40:38;;;;;;;12.07;5.13;;;;;;;;;;6132198;23;20025;-85
2023/09/29 14:43:05;;;;;;;8.80;5.22;;;;;;;;;;6156464;23;20504;-85
2023/09/29 14:45:35;;;;;;;8.82;5.00;;;;;;;;;;6191928;23;20017;-85
2023/09/29 14:48:04;;;;;;;6.55;5.82;;;;;;;;;;6132069;23;20017;-85
2023/09/29 14:50:39;;;;;;;11.63;7.03;;;;;;;;;;6193050;23;20397;-85
2023/09/29 14:53:08;;;;;;;16.73;7.80;;;;;;;;;;6167274;23;20017;-85
2023/09/29 14:55:38;;;;;;;10.68;6.47;;;;;;;;;;6131357;23;20017;-84
2023/09/29 14:58:08;;;;;;;13.55;9.30;;;;;;;;;;6165905;23;20024;-83
2023/09/29 15:00:41;;;;;;;17.88;9.00;;;;;;;;;;6159382;23;20032;-83
2023/09/29 15:03:13;;;;;;;15.50;7.60;;;;;;;;;;6135755;23;20020;-83
2023/09/29 15:05:41;;;;;;;14.25;9.60;;;;;;;;;;6158994;23;20024;-83
2023/09/29 15:08:09;;;;;;;16.13;8.68;;;;;;;;;;6159564;23;20042;-84
2023/09/29 15:10:39;;;;;;;23.45;15.50;;;;;;;;;;6134313;23;20023;-83
2023/09/29 15:13:07;;;;;;;23.52;12.05;;;;;;;;;;6157250;23;20021;-83
2023/09/29 15:15:38;;;;;;;23.45;12.82;;;;;;;;;;6158889;23;20495;-83
2023/09/29 15:18:06;;;;;;;23.15;12.98;;;;;;;;;;6160234;23;20363;-83
2023/09/29 15:20:33;;;;;;;18.52;11.52;;;;;;;;;;6159933;23;20028;-83
2023/09/29 15:23:05;;;;;;;20.02;11.20;;;;;;;;;;6134919;23;20025;-83
2023/09/29 15:25:35;;;;;;;19.63;12.98;;;;;;;;;;6135701;23;20016;-84
2023/09/29 15:28:04;;;;;;;27.63;14.63;;;;;;;;;;6158040;23;20021;-83
2023/09/29 15:30:38;;;;;;;24.90;14.80;;;;;;;;;;6158857;23;20029;-84
2023/09/29 15:33:05;;;;;;;25.20;13.80;;;;;;;;;;6160071;23;20017;-83
2023/09/29 15:35:33;;;;;;;21.23;14.35;;;;;;;;;;6138575;23;20021;-84
2023/09/29 15:38:00;;;;;;;29.02;15.32;;;;;;;;;;6160728;23;20017;-83
2023/09/29 15:40:29;;;;;;;31.98;20.75;;;;;;;;;;6163197;23;20365;-83
2023/09/29 15:42:56;;;;;;;27.15;15.95;;;;;;;;;;6162219;23;20362;-84
2023/09/29 15:45:26;;;;;;;25.23;15.98;;;;;;;;;;6163380;23;20461;-83
2023/09/29 15:47:55;;;;;;;25.60;16.95;;;;;;;;;;6189407;23;20023;-83
2023/09/29 15:50:26;;;;;;;27.05;15.18;;;;;;;;;;6138311;23;20024;-84
2023/09/29 15:52:55;;;;;;;24.83;16.05;;;;;;;;;;6174014;23;20014;-83
2023/09/29 15:55:25;;;;;;;25.92;15.55;;;;;;;;;;6166263;23;20017;-83
2023/09/29 15:57:58;;;;;;;25.53;15.83;;;;;;;;;;6175977;23;20020;-83
2023/09/29 16:00:25;;;;;;;24.52;13.50;;;;;;;;;;6192985;23;20023;-83
2023/09/29 16:02:53;;;;;;;21.73;14.07;;;;;;;;;;6189675;23;20025;-83
2023/09/29 16:05:23;;;;;;;21.00;13.07;;;;;;;;;;6176074;23;20357;-83
2023/09/29 16:07:57;;;;;;;23.35;14.80;;;;;;;;;;6165539;23;20024;-83
2023/09/29 16:10:24;;;;;;;23.45;15.07;;;;;;;;;;6139826;23;20021;-83
2023/09/29 16:12:52;;;;;;;23.67;14.40;;;;;;;;;;6140646;23;20503;-83
2023/09/29 16:15:23;;;;;;;25.88;14.15;;;;;;;;;;6164429;23;20031;-83
2023/09/29 16:17:52;;;;;;;25.33;14.60;;;;;;;;;;6163123;23;20021;-83
2023/09/29 16:20:22;;;;;;;22.08;13.52;;;;;;;;;;6189394;23;20021;-83
2023/09/29 16:22:50;;;;;;;18.70;13.48;;;;;;;;;;6188840;23;20013;-83
2023/09/29 16:25:19;;;;;;;23.38;14.23;;;;;;;;;;6160395;23;20017;-83
2023/09/29 16:27:46;;;;;;;22.00;13.95;;;;;;;;;;6159633;23;20020;-83
2023/09/29 16:30:15;;;;;;;27.83;14.20;;;;;;;;;;6161974;23;20682;-83
2023/09/29 16:32:46;;;;;;;28.30;14.82;;;;;;;;;;6138176;23;20025;-83
2023/09/29 16:35:14;;;;;;;23.20;13.27;;;;;;;;;;6138446;23;20028;-83
2023/09/29 16:37:44;;;;;;;22.08;11.63;;;;;;;;;;6162576;23;20016;-83
2023/09/29 16:40:14;;;;;;;24.88;12.70;;;;;;;;;;6163253;23;20021;-83
2023/09/29 16:42:41;;;;;;;22.23;13.30;;;;;;;;;;6137350;23;20027;-83
2023/09/29 16:45:10;;;;;;;26.00;14.70;;;;;;;;;;6172997;23;20021;-83
2023/09/29 16:47:37;;;;;;;21.40;12.10;;;;;;;;;;6139365;23;20032;-83
2023/09/29 16:50:07;;;;;;;18.90;12.65;;;;;;;;;;6138311;23;20025;-83
2023/09/29 16:52:34;;;;;;;28.70;13.38;;;;;;;;;;6163557;23;20020;-83
2023/09/29 16:55:05;;;;;;;23.05;13.05;;;;;;;;;;6162797;23;20017;-83
2023/09/29 16:57:38;;;;;;;21.17;11.82;;;;;;;;;;6138619;23;20040;-83
2023/09/29 17:00:08;;;;;;;25.80;13.38;;;;;;;;;;6165466;23;20021;-83
2023/09/29 17:02:36;;;;;;;21.30;12.77;;;;;;;;;;6139754;23;20017;-83
2023/09/29 17:05:03;;;;;;;21.40;13.10;;;;;;;;;;6139951;23;20021;-83
2023/09/29 17:07:34;;;;;;;23.77;13.40;;;;;;;;;;6140944;23;20017;-83
2023/09/29 17:10:03;;;;;;;23.52;14.13;;;;;;;;;;6141947;23;20017;-83
2023/09/29 17:12:35;;;;;;;21.83;11.93;;;;;;;;;;6166045;23;20044;-83
2023/09/29 17:15:04;;;;;;;22.88;11.85;;;;;;;;;;6192364;23;20019;-84